sensor_id;sensor_type;location;lat;lon;timestamp;P1;durP1;ratioP1;P2;durP2;ratioP2
85267;SDS011;75677;52.380;4.876;2024-02-26T00:01:01;3.10;;;0.70;;
85267;SDS011;75677;52.380;4.876;2024-02-26T00:03:27;3.22;;;1.13;;
85267;SDS011;75677;52.380;4.876;2024-02-26T00:05:52;2.10;;;0.75;;
85267;SDS011;75677;52.380;4.876;2024-02-26T00:08:17;3.33;;;0.80;;
85267;SDS011;75677;52.380;4.876;2024-02-26T00:10:43;3.00;;;0.93;;
85267;SDS011;75677;52.380;4.876;2024-02-26T00:13:08;2.73;;;1.17;;
85267;SDS011;75677;52.380;4.876;2024-02-26T00:15:33;2.97;;;1.00;;
85267;SDS011;75677;52.380;4.876;2024-02-26T00:20:25;2.45;;;0.93;;
85267;SDS011;75677;52.380;4.876;2024-02-26T00:22:51;2.92;;;0.73;;
85267;SDS011;75677;52.380;4.876;2024-02-26T00:25:17;2.85;;;1.23;;
85267;SDS011;75677;52.380;4.876;2024-02-26T00:27:42;2.38;;;0.80;;
85267;SDS011;75677;52.380;4.876;2024-02-26T00:30:09;2.50;;;0.85;;
85267;SDS011;75677;52.380;4.876;2024-02-26T00:32:35;3.08;;;1.10;;
85267;SDS011;75677;52.380;4.876;2024-02-26T00:35:00;3.30;;;1.15;;
85267;SDS011;75677;52.380;4.876;2024-02-26T00:37:26;2.80;;;1.10;;
85267;SDS011;75677;52.380;4.876;2024-02-26T00:39:51;2.20;;;0.90;;
85267;SDS011;75677;52.380;4.876;2024-02-26T00:42:18;3.13;;;1.50;;
85267;SDS011;75677;52.380;4.876;2024-02-26T00:44:43;2.63;;;0.83;;
85267;SDS011;75677;52.380;4.876;2024-02-26T00:47:08;2.47;;;0.95;;
85267;SDS011;75677;52.380;4.876;2024-02-26T00:49:34;3.65;;;1.05;;
85267;SDS011;75677;52.380;4.876;2024-02-26T00:51:59;3.38;;;1.17;;
85267;SDS011;75677;52.380;4.876;2024-02-26T00:54:25;4.13;;;0.93;;
85267;SDS011;75677;52.380;4.876;2024-02-26T00:56:50;6.10;;;1.13;;
85267;SDS011;75677;52.380;4.876;2024-02-26T00:59:15;3.00;;;0.83;;
85267;SDS011;75677;52.380;4.876;2024-02-26T01:01:41;2.77;;;0.83;;
85267;SDS011;75677;52.380;4.876;2024-02-26T01:04:06;2.22;;;0.95;;
85267;SDS011;75677;52.380;4.876;2024-02-26T01:06:31;3.43;;;1.03;;
85267;SDS011;75677;52.380;4.876;2024-02-26T01:08:57;3.20;;;1.60;;
85267;SDS011;75677;52.380;4.876;2024-02-26T01:11:22;3.33;;;1.20;;
85267;SDS011;75677;52.380;4.876;2024-02-26T01:13:47;2.70;;;0.93;;
85267;SDS011;75677;52.380;4.876;2024-02-26T01:16:13;3.42;;;1.45;;
85267;SDS011;75677;52.380;4.876;2024-02-26T01:18:38;2.97;;;1.10;;
85267;SDS011;75677;52.380;4.876;2024-02-26T01:21:04;3.30;;;1.27;;
85267;SDS011;75677;52.380;4.876;2024-02-26T01:23:33;4.15;;;1.13;;
85267;SDS011;75677;52.380;4.876;2024-02-26T01:25:59;2.47;;;1.00;;
85267;SDS011;75677;52.380;4.876;2024-02-26T01:28:24;3.08;;;1.08;;
85267;SDS011;75677;52.380;4.876;2024-02-26T01:30:50;2.43;;;0.83;;
85267;SDS011;75677;52.380;4.876;2024-02-26T01:33:15;1.90;;;0.73;;
85267;SDS011;75677;52.380;4.876;2024-02-26T01:35:40;2.13;;;1.63;;
85267;SDS011;75677;52.380;4.876;2024-02-26T01:38:06;2.65;;;0.82;;
85267;SDS011;75677;52.380;4.876;2024-02-26T01:40:31;2.00;;;0.77;;
85267;SDS011;75677;52.380;4.876;2024-02-26T01:42:56;2.47;;;0.70;;
85267;SDS011;75677;52.380;4.876;2024-02-26T01:45:22;2.40;;;0.80;;
85267;SDS011;75677;52.380;4.876;2024-02-26T01:47:50;3.53;;;1.05;;
85267;SDS011;75677;52.380;4.876;2024-02-26T01:52:41;2.10;;;0.93;;
85267;SDS011;75677;52.380;4.876;2024-02-26T01:55:07;3.25;;;1.08;;
85267;SDS011;75677;52.380;4.876;2024-02-26T01:57:33;3.00;;;1.02;;
85267;SDS011;75677;52.380;4.876;2024-02-26T01:59:59;2.15;;;0.70;;
85267;SDS011;75677;52.380;4.876;2024-02-26T02:02:24;3.28;;;0.98;;
85267;SDS011;75677;52.380;4.876;2024-02-26T02:04:50;3.35;;;1.52;;
85267;SDS011;75677;52.380;4.876;2024-02-26T02:07:16;2.50;;;1.10;;
85267;SDS011;75677;52.380;4.876;2024-02-26T02:09:41;2.47;;;0.83;;
85267;SDS011;75677;52.380;4.876;2024-02-26T02:12:07;2.53;;;1.30;;
85267;SDS011;75677;52.380;4.876;2024-02-26T02:14:33;2.20;;;1.00;;
85267;SDS011;75677;52.380;4.876;2024-02-26T02:16:58;1.55;;;0.55;;
85267;SDS011;75677;52.380;4.876;2024-02-26T02:19:24;2.28;;;0.95;;
85267;SDS011;75677;52.380;4.876;2024-02-26T02:21:49;1.88;;;1.08;;
85267;SDS011;75677;52.380;4.876;2024-02-26T02:24:14;2.27;;;1.03;;
85267;SDS011;75677;52.380;4.876;2024-02-26T02:26:40;2.33;;;1.10;;
85267;SDS011;75677;52.380;4.876;2024-02-26T02:29:05;3.05;;;0.85;;
85267;SDS011;75677;52.380;4.876;2024-02-26T02:31:32;2.58;;;1.10;;
85267;SDS011;75677;52.380;4.876;2024-02-26T02:33:58;3.03;;;1.42;;
85267;SDS011;75677;52.380;4.876;2024-02-26T02:36:23;2.45;;;1.00;;
85267;SDS011;75677;52.380;4.876;2024-02-26T02:38:49;3.33;;;1.07;;
85267;SDS011;75677;52.380;4.876;2024-02-26T02:41:16;3.22;;;1.48;;
85267;SDS011;75677;52.380;4.876;2024-02-26T02:43:41;2.78;;;1.00;;
85267;SDS011;75677;52.380;4.876;2024-02-26T02:46:07;3.03;;;1.30;;
85267;SDS011;75677;52.380;4.876;2024-02-26T02:48:32;2.73;;;1.03;;
85267;SDS011;75677;52.380;4.876;2024-02-26T02:50:57;2.73;;;1.10;;
85267;SDS011;75677;52.380;4.876;2024-02-26T02:53:23;2.53;;;1.23;;
85267;SDS011;75677;52.380;4.876;2024-02-26T02:55:48;2.33;;;1.13;;
85267;SDS011;75677;52.380;4.876;2024-02-26T02:58:14;3.15;;;1.00;;
85267;SDS011;75677;52.380;4.876;2024-02-26T03:00:39;2.50;;;1.10;;
85267;SDS011;75677;52.380;4.876;2024-02-26T03:03:04;2.50;;;1.00;;
85267;SDS011;75677;52.380;4.876;2024-02-26T03:05:30;2.97;;;0.90;;
85267;SDS011;75677;52.380;4.876;2024-02-26T03:07:55;2.63;;;1.13;;
85267;SDS011;75677;52.380;4.876;2024-02-26T03:10:20;3.13;;;1.27;;
85267;SDS011;75677;52.380;4.876;2024-02-26T03:12:46;2.55;;;1.20;;
85267;SDS011;75677;52.380;4.876;2024-02-26T03:15:11;2.77;;;1.20;;
85267;SDS011;75677;52.380;4.876;2024-02-26T03:17:37;2.97;;;1.17;;
85267;SDS011;75677;52.380;4.876;2024-02-26T03:20:02;2.55;;;1.13;;
85267;SDS011;75677;52.380;4.876;2024-02-26T03:22:30;3.35;;;1.35;;
85267;SDS011;75677;52.380;4.876;2024-02-26T03:24:56;2.83;;;1.38;;
85267;SDS011;75677;52.380;4.876;2024-02-26T03:27:22;2.80;;;1.35;;
85267;SDS011;75677;52.380;4.876;2024-02-26T03:29:48;2.88;;;1.23;;
85267;SDS011;75677;52.380;4.876;2024-02-26T03:32:14;2.78;;;1.25;;
85267;SDS011;75677;52.380;4.876;2024-02-26T03:34:39;3.20;;;1.27;;
85267;SDS011;75677;52.380;4.876;2024-02-26T03:37:05;2.42;;;1.17;;
85267;SDS011;75677;52.380;4.876;2024-02-26T03:39:31;3.35;;;1.08;;
85267;SDS011;75677;52.380;4.876;2024-02-26T03:41:57;3.72;;;1.35;;
85267;SDS011;75677;52.380;4.876;2024-02-26T03:44:22;3.10;;;1.57;;
85267;SDS011;75677;52.380;4.876;2024-02-26T03:46:47;3.92;;;1.45;;
85267;SDS011;75677;52.380;4.876;2024-02-26T03:49:13;2.97;;;1.17;;
85267;SDS011;75677;52.380;4.876;2024-02-26T03:51:38;2.60;;;1.10;;
85267;SDS011;75677;52.380;4.876;2024-02-26T03:54:04;3.28;;;1.05;;
85267;SDS011;75677;52.380;4.876;2024-02-26T03:56:29;2.55;;;1.13;;
85267;SDS011;75677;52.380;4.876;2024-02-26T03:58:54;3.75;;;1.83;;
85267;SDS011;75677;52.380;4.876;2024-02-26T04:01:20;3.20;;;1.53;;
85267;SDS011;75677;52.380;4.876;2024-02-26T04:03:45;3.92;;;1.52;;
85267;SDS011;75677;52.380;4.876;2024-02-26T04:06:11;3.22;;;1.48;;
85267;SDS011;75677;52.380;4.876;2024-02-26T04:08:39;4.28;;;1.15;;
85267;SDS011;75677;52.380;4.876;2024-02-26T04:11:06;5.03;;;1.38;;
85267;SDS011;75677;52.380;4.876;2024-02-26T04:13:35;3.67;;;1.48;;
85267;SDS011;75677;52.380;4.876;2024-02-26T04:16:03;3.50;;;1.73;;
85267;SDS011;75677;52.380;4.876;2024-02-26T04:18:29;5.63;;;1.35;;
85267;SDS011;75677;52.380;4.876;2024-02-26T04:20:55;3.72;;;1.65;;
85267;SDS011;75677;52.380;4.876;2024-02-26T04:23:21;4.57;;;1.10;;
85267;SDS011;75677;52.380;4.876;2024-02-26T04:25:47;4.38;;;1.85;;
85267;SDS011;75677;52.380;4.876;2024-02-26T04:28:12;3.03;;;1.10;;
85267;SDS011;75677;52.380;4.876;2024-02-26T04:30:37;3.67;;;1.80;;
85267;SDS011;75677;52.380;4.876;2024-02-26T04:33:03;2.88;;;1.70;;
85267;SDS011;75677;52.380;4.876;2024-02-26T04:35:28;3.35;;;1.65;;
85267;SDS011;75677;52.380;4.876;2024-02-26T04:37:54;3.05;;;1.35;;
85267;SDS011;75677;52.380;4.876;2024-02-26T04:40:19;4.10;;;1.83;;
85267;SDS011;75677;52.380;4.876;2024-02-26T04:42:45;3.63;;;1.67;;
85267;SDS011;75677;52.380;4.876;2024-02-26T04:45:10;4.15;;;1.65;;
85267;SDS011;75677;52.380;4.876;2024-02-26T04:47:36;3.15;;;1.20;;
85267;SDS011;75677;52.380;4.876;2024-02-26T04:50:01;4.30;;;1.45;;
85267;SDS011;75677;52.380;4.876;2024-02-26T04:52:26;3.85;;;1.83;;
85267;SDS011;75677;52.380;4.876;2024-02-26T04:54:52;3.10;;;1.38;;
85267;SDS011;75677;52.380;4.876;2024-02-26T04:57:17;3.13;;;1.63;;
85267;SDS011;75677;52.380;4.876;2024-02-26T04:59:43;3.08;;;1.40;;
85267;SDS011;75677;52.380;4.876;2024-02-26T05:02:10;3.35;;;1.80;;
85267;SDS011;75677;52.380;4.876;2024-02-26T05:04:35;3.40;;;1.58;;
85267;SDS011;75677;52.380;4.876;2024-02-26T05:07:01;3.97;;;1.63;;
85267;SDS011;75677;52.380;4.876;2024-02-26T05:09:26;3.47;;;1.80;;
85267;SDS011;75677;52.380;4.876;2024-02-26T05:11:51;4.83;;;2.03;;
85267;SDS011;75677;52.380;4.876;2024-02-26T05:14:17;5.10;;;2.03;;
85267;SDS011;75677;52.380;4.876;2024-02-26T05:16:43;4.00;;;1.80;;
85267;SDS011;75677;52.380;4.876;2024-02-26T05:19:08;6.53;;;1.97;;
85267;SDS011;75677;52.380;4.876;2024-02-26T05:21:33;3.40;;;1.60;;
85267;SDS011;75677;52.380;4.876;2024-02-26T05:23:59;2.93;;;1.57;;
85267;SDS011;75677;52.380;4.876;2024-02-26T05:26:24;6.68;;;1.80;;
85267;SDS011;75677;52.380;4.876;2024-02-26T05:28:50;5.47;;;2.10;;
85267;SDS011;75677;52.380;4.876;2024-02-26T05:31:16;4.45;;;1.63;;
85267;SDS011;75677;52.380;4.876;2024-02-26T05:36:07;4.32;;;1.67;;
85267;SDS011;75677;52.380;4.876;2024-02-26T05:38:33;2.63;;;1.48;;
85267;SDS011;75677;52.380;4.876;2024-02-26T05:40:58;3.13;;;1.50;;
85267;SDS011;75677;52.380;4.876;2024-02-26T05:43:24;3.00;;;1.42;;
85267;SDS011;75677;52.380;4.876;2024-02-26T05:48:15;2.97;;;1.30;;
85267;SDS011;75677;52.380;4.876;2024-02-26T05:50:41;3.50;;;1.88;;
85267;SDS011;75677;52.380;4.876;2024-02-26T05:53:06;4.20;;;1.30;;
85267;SDS011;75677;52.380;4.876;2024-02-26T05:55:32;3.05;;;1.35;;
85267;SDS011;75677;52.380;4.876;2024-02-26T05:57:57;2.90;;;1.30;;
85267;SDS011;75677;52.380;4.876;2024-02-26T06:00:22;3.23;;;1.60;;
85267;SDS011;75677;52.380;4.876;2024-02-26T06:02:48;2.63;;;1.07;;
85267;SDS011;75677;52.380;4.876;2024-02-26T06:05:13;7.53;;;2.22;;
85267;SDS011;75677;52.380;4.876;2024-02-26T06:07:41;9.95;;;2.80;;
85267;SDS011;75677;52.380;4.876;2024-02-26T06:10:07;4.82;;;2.38;;
85267;SDS011;75677;52.380;4.876;2024-02-26T06:12:34;4.05;;;2.47;;
85267;SDS011;75677;52.380;4.876;2024-02-26T06:15:00;7.32;;;2.42;;
85267;SDS011;75677;52.380;4.876;2024-02-26T06:17:26;6.05;;;3.17;;
85267;SDS011;75677;52.380;4.876;2024-02-26T06:19:51;5.68;;;2.38;;
85267;SDS011;75677;52.380;4.876;2024-02-26T06:22:17;4.28;;;2.65;;
85267;SDS011;75677;52.380;4.876;2024-02-26T06:24:42;8.97;;;2.17;;
85267;SDS011;75677;52.380;4.876;2024-02-26T06:27:07;9.83;;;2.40;;
85267;SDS011;75677;52.380;4.876;2024-02-26T06:29:33;4.63;;;2.67;;
85267;SDS011;75677;52.380;4.876;2024-02-26T06:31:59;4.90;;;2.43;;
85267;SDS011;75677;52.380;4.876;2024-02-26T06:44:30;6.10;;;1.90;;
85267;SDS011;75677;52.380;4.876;2024-02-26T06:47:00;4.20;;;2.10;;
85267;SDS011;75677;52.380;4.876;2024-02-26T06:49:26;3.40;;;1.63;;
85267;SDS011;75677;52.380;4.876;2024-02-26T06:51:53;3.70;;;2.38;;
85267;SDS011;75677;52.380;4.876;2024-02-26T06:54:18;2.95;;;1.73;;
85267;SDS011;75677;52.380;4.876;2024-02-26T06:56:43;3.30;;;1.50;;
85267;SDS011;75677;52.380;4.876;2024-02-26T06:59:09;3.60;;;1.50;;
85267;SDS011;75677;52.380;4.876;2024-02-26T07:01:34;3.65;;;1.38;;
85267;SDS011;75677;52.380;4.876;2024-02-26T07:03:59;4.40;;;1.60;;
85267;SDS011;75677;52.380;4.876;2024-02-26T07:06:25;4.18;;;1.63;;
85267;SDS011;75677;52.380;4.876;2024-02-26T07:08:52;2.72;;;1.52;;
85267;SDS011;75677;52.380;4.876;2024-02-26T07:11:17;2.50;;;1.23;;
85267;SDS011;75677;52.380;4.876;2024-02-26T07:13:44;2.78;;;1.40;;
85267;SDS011;75677;52.380;4.876;2024-02-26T07:16:10;2.33;;;0.93;;
85267;SDS011;75677;52.380;4.876;2024-02-26T07:18:35;5.37;;;1.07;;
85267;SDS011;75677;52.380;4.876;2024-02-26T07:21:01;5.83;;;1.50;;
85267;SDS011;75677;52.380;4.876;2024-02-26T07:23:27;4.45;;;1.23;;
85267;SDS011;75677;52.380;4.876;2024-02-26T07:25:53;3.87;;;1.10;;
85267;SDS011;75677;52.380;4.876;2024-02-26T07:28:18;2.63;;;1.15;;
85267;SDS011;75677;52.380;4.876;2024-02-26T07:30:44;2.65;;;1.13;;
85267;SDS011;75677;52.380;4.876;2024-02-26T07:33:10;2.65;;;1.02;;
85267;SDS011;75677;52.380;4.876;2024-02-26T07:35:35;2.65;;;1.15;;
85267;SDS011;75677;52.380;4.876;2024-02-26T07:38:01;2.50;;;1.20;;
85267;SDS011;75677;52.380;4.876;2024-02-26T07:40:27;2.38;;;0.93;;
85267;SDS011;75677;52.380;4.876;2024-02-26T07:42:52;1.90;;;0.90;;
85267;SDS011;75677;52.380;4.876;2024-02-26T07:45:17;3.27;;;1.10;;
85267;SDS011;75677;52.380;4.876;2024-02-26T07:47:45;2.00;;;0.93;;
85267;SDS011;75677;52.380;4.876;2024-02-26T07:50:11;2.67;;;0.80;;
85267;SDS011;75677;52.380;4.876;2024-02-26T07:52:37;3.35;;;0.80;;
85267;SDS011;75677;52.380;4.876;2024-02-26T07:55:02;2.00;;;1.00;;
85267;SDS011;75677;52.380;4.876;2024-02-26T07:57:28;2.40;;;0.95;;
85267;SDS011;75677;52.380;4.876;2024-02-26T07:59:53;2.58;;;0.77;;
85267;SDS011;75677;52.380;4.876;2024-02-26T08:02:19;2.60;;;0.70;;
85267;SDS011;75677;52.380;4.876;2024-02-26T08:04:44;8.33;;;1.10;;
85267;SDS011;75677;52.380;4.876;2024-02-26T08:27:44;2.70;;;0.70;;
85267;SDS011;75677;52.380;4.876;2024-02-26T08:30:09;3.43;;;0.87;;
85267;SDS011;75677;52.380;4.876;2024-02-26T08:32:35;2.70;;;0.93;;
85267;SDS011;75677;52.380;4.876;2024-02-26T08:35:01;1.80;;;0.73;;
85267;SDS011;75677;52.380;4.876;2024-02-26T08:37:26;2.22;;;0.60;;
85267;SDS011;75677;52.380;4.876;2024-02-26T08:39:51;3.73;;;0.90;;
85267;SDS011;75677;52.380;4.876;2024-02-26T08:42:17;2.33;;;0.87;;
85267;SDS011;75677;52.380;4.876;2024-02-26T08:44:42;2.15;;;0.70;;
85267;SDS011;75677;52.380;4.876;2024-02-26T08:47:08;2.90;;;1.15;;
85267;SDS011;75677;52.380;4.876;2024-02-26T08:49:33;2.30;;;1.10;;
85267;SDS011;75677;52.380;4.876;2024-02-26T08:51:59;2.33;;;0.50;;
85267;SDS011;75677;52.380;4.876;2024-02-26T08:56:50;2.17;;;0.67;;
85267;SDS011;75677;52.380;4.876;2024-02-26T08:59:16;2.60;;;0.30;;
85267;SDS011;75677;52.380;4.876;2024-02-26T09:01:44;3.28;;;0.40;;
85267;SDS011;75677;52.380;4.876;2024-02-26T09:04:10;1.20;;;0.32;;
85267;SDS011;75677;52.380;4.876;2024-02-26T09:06:35;1.60;;;0.43;;
85267;SDS011;75677;52.380;4.876;2024-02-26T09:09:00;2.37;;;0.40;;
85267;SDS011;75677;52.380;4.876;2024-02-26T09:11:26;2.73;;;0.70;;
85267;SDS011;75677;52.380;4.876;2024-02-26T09:13:51;1.17;;;0.30;;
85267;SDS011;75677;52.380;4.876;2024-02-26T09:16:17;2.28;;;0.43;;
85267;SDS011;75677;52.380;4.876;2024-02-26T09:18:42;1.30;;;0.40;;
85267;SDS011;75677;52.380;4.876;2024-02-26T09:21:07;2.80;;;0.30;;
85267;SDS011;75677;52.380;4.876;2024-02-26T09:23:33;1.80;;;0.30;;
85267;SDS011;75677;52.380;4.876;2024-02-26T09:25:59;1.25;;;0.47;;
85267;SDS011;75677;52.380;4.876;2024-02-26T09:28:25;2.85;;;0.43;;
85267;SDS011;75677;52.380;4.876;2024-02-26T09:30:50;1.60;;;0.50;;
85267;SDS011;75677;52.380;4.876;2024-02-26T09:33:16;0.73;;;0.25;;
85267;SDS011;75677;52.380;4.876;2024-02-26T09:35:41;1.20;;;0.63;;
85267;SDS011;75677;52.380;4.876;2024-02-26T09:38:07;1.33;;;0.30;;
85267;SDS011;75677;52.380;4.876;2024-02-26T09:40:32;1.50;;;0.70;;
85267;SDS011;75677;52.380;4.876;2024-02-26T09:43:00;1.25;;;0.40;;
85267;SDS011;75677;52.380;4.876;2024-02-26T09:45:29;0.90;;;0.32;;
85267;SDS011;75677;52.380;4.876;2024-02-26T09:47:57;1.33;;;0.32;;
85267;SDS011;75677;52.380;4.876;2024-02-26T09:50:23;1.10;;;0.40;;
85267;SDS011;75677;52.380;4.876;2024-02-26T09:52:49;2.70;;;0.32;;
85267;SDS011;75677;52.380;4.876;2024-02-26T09:55:16;1.10;;;0.35;;
85267;SDS011;75677;52.380;4.876;2024-02-26T09:57:43;1.75;;;0.50;;
85267;SDS011;75677;52.380;4.876;2024-02-26T10:00:10;1.60;;;0.38;;
85267;SDS011;75677;52.380;4.876;2024-02-26T10:02:48;1.75;;;0.60;;
85267;SDS011;75677;52.380;4.876;2024-02-26T10:05:16;2.50;;;0.45;;
85267;SDS011;75677;52.380;4.876;2024-02-26T10:07:44;0.98;;;0.32;;
85267;SDS011;75677;52.380;4.876;2024-02-26T10:10:10;0.82;;;0.40;;
85267;SDS011;75677;52.380;4.876;2024-02-26T10:12:35;1.20;;;0.47;;
85267;SDS011;75677;52.380;4.876;2024-02-26T10:15:00;1.17;;;0.53;;
85267;SDS011;75677;52.380;4.876;2024-02-26T10:17:26;1.73;;;0.82;;
85267;SDS011;75677;52.380;4.876;2024-02-26T10:19:51;1.17;;;0.32;;
85267;SDS011;75677;52.380;4.876;2024-02-26T10:22:21;1.10;;;0.47;;
85267;SDS011;75677;52.380;4.876;2024-02-26T10:24:47;1.05;;;0.32;;
85267;SDS011;75677;52.380;4.876;2024-02-26T10:27:12;2.53;;;0.40;;
85267;SDS011;75677;52.380;4.876;2024-02-26T10:29:38;1.30;;;0.50;;
85267;SDS011;75677;52.380;4.876;2024-02-26T10:32:03;1.10;;;0.70;;
85267;SDS011;75677;52.380;4.876;2024-02-26T10:34:29;1.48;;;0.32;;
85267;SDS011;75677;52.380;4.876;2024-02-26T10:36:55;2.70;;;0.40;;
85267;SDS011;75677;52.380;4.876;2024-02-26T10:39:21;0.65;;;0.40;;
85267;SDS011;75677;52.380;4.876;2024-02-26T10:41:46;0.93;;;0.50;;
85267;SDS011;75677;52.380;4.876;2024-02-26T10:44:12;0.82;;;0.22;;
85267;SDS011;75677;52.380;4.876;2024-02-26T10:46:38;2.42;;;0.40;;
85267;SDS011;75677;52.380;4.876;2024-02-26T10:49:05;1.75;;;0.30;;
85267;SDS011;75677;52.380;4.876;2024-02-26T10:51:32;1.20;;;0.30;;
85267;SDS011;75677;52.380;4.876;2024-02-26T10:54:02;0.98;;;0.32;;
85267;SDS011;75677;52.380;4.876;2024-02-26T10:56:33;1.50;;;0.40;;
85267;SDS011;75677;52.380;4.876;2024-02-26T10:58:59;2.75;;;0.38;;
85267;SDS011;75677;52.380;4.876;2024-02-26T11:01:26;2.72;;;0.70;;
85267;SDS011;75677;52.380;4.876;2024-02-26T11:03:54;1.15;;;0.60;;
85267;SDS011;75677;52.380;4.876;2024-02-26T11:08:49;1.42;;;0.32;;
85267;SDS011;75677;52.380;4.876;2024-02-26T11:11:16;1.95;;;0.73;;
85267;SDS011;75677;52.380;4.876;2024-02-26T11:13:42;1.40;;;0.40;;
85267;SDS011;75677;52.380;4.876;2024-02-26T11:16:13;1.70;;;0.35;;
85267;SDS011;75677;52.380;4.876;2024-02-26T11:18:39;1.92;;;0.52;;
85267;SDS011;75677;52.380;4.876;2024-02-26T11:21:07;1.05;;;0.45;;
85267;SDS011;75677;52.380;4.876;2024-02-26T11:23:33;1.00;;;0.30;;
85267;SDS011;75677;52.380;4.876;2024-02-26T11:26:01;1.88;;;0.40;;
85267;SDS011;75677;52.380;4.876;2024-02-26T11:28:30;1.63;;;0.60;;
85267;SDS011;75677;52.380;4.876;2024-02-26T11:30:57;1.42;;;0.32;;
85267;SDS011;75677;52.380;4.876;2024-02-26T11:33:25;1.67;;;0.40;;
85267;SDS011;75677;52.380;4.876;2024-02-26T11:35:51;1.80;;;0.32;;
85267;SDS011;75677;52.380;4.876;2024-02-26T11:38:19;0.70;;;0.40;;
85267;SDS011;75677;52.380;4.876;2024-02-26T11:40:49;1.58;;;0.47;;
85267;SDS011;75677;52.380;4.876;2024-02-26T11:43:15;1.70;;;0.32;;
85267;SDS011;75677;52.380;4.876;2024-02-26T11:48:24;1.98;;;0.30;;
85267;SDS011;75677;52.380;4.876;2024-02-26T11:50:51;1.25;;;0.20;;
85267;SDS011;75677;52.380;4.876;2024-02-26T11:53:27;1.33;;;0.32;;
85267;SDS011;75677;52.380;4.876;2024-02-26T11:59:37;1.63;;;0.45;;
85267;SDS011;75677;52.380;4.876;2024-02-26T12:02:02;1.77;;;0.45;;
85267;SDS011;75677;52.380;4.876;2024-02-26T12:04:27;0.70;;;0.30;;
85267;SDS011;75677;52.380;4.876;2024-02-26T12:07:00;1.52;;;0.35;;
85267;SDS011;75677;52.380;4.876;2024-02-26T12:12:03;2.38;;;0.32;;
85267;SDS011;75677;52.380;4.876;2024-02-26T12:14:32;3.40;;;0.93;;
85267;SDS011;75677;52.380;4.876;2024-02-26T12:16:59;2.33;;;0.55;;
85267;SDS011;75677;52.380;4.876;2024-02-26T12:19:24;3.78;;;0.63;;
85267;SDS011;75677;52.380;4.876;2024-02-26T12:21:53;1.92;;;0.43;;
85267;SDS011;75677;52.380;4.876;2024-02-26T12:24:21;1.10;;;0.32;;
85267;SDS011;75677;52.380;4.876;2024-02-26T12:26:47;4.55;;;0.47;;
85267;SDS011;75677;52.380;4.876;2024-02-26T12:29:12;2.80;;;0.43;;
85267;SDS011;75677;52.380;4.876;2024-02-26T12:31:38;3.35;;;0.43;;
85267;SDS011;75677;52.380;4.876;2024-02-26T12:34:06;2.00;;;0.68;;
85267;SDS011;75677;52.380;4.876;2024-02-26T12:36:33;2.28;;;0.40;;
85267;SDS011;75677;52.380;4.876;2024-02-26T12:38:59;3.83;;;0.50;;
85267;SDS011;75677;52.380;4.876;2024-02-26T12:41:27;2.28;;;0.50;;
85267;SDS011;75677;52.380;4.876;2024-02-26T12:43:53;2.63;;;0.52;;
85267;SDS011;75677;52.380;4.876;2024-02-26T12:46:18;3.15;;;0.70;;
85267;SDS011;75677;52.380;4.876;2024-02-26T12:48:44;1.50;;;0.55;;
85267;SDS011;75677;52.380;4.876;2024-02-26T12:51:10;1.05;;;0.43;;
85267;SDS011;75677;52.380;4.876;2024-02-26T12:53:37;1.95;;;0.60;;
85267;SDS011;75677;52.380;4.876;2024-02-26T12:56:03;1.38;;;0.52;;
85267;SDS011;75677;52.380;4.876;2024-02-26T13:00:56;1.63;;;0.35;;
85267;SDS011;75677;52.380;4.876;2024-02-26T13:03:22;2.28;;;0.70;;
85267;SDS011;75677;52.380;4.876;2024-02-26T13:05:48;2.08;;;0.38;;
85267;SDS011;75677;52.380;4.876;2024-02-26T13:08:18;2.00;;;0.65;;
85267;SDS011;75677;52.380;4.876;2024-02-26T13:10:45;1.23;;;0.55;;
85267;SDS011;75677;52.380;4.876;2024-02-26T13:13:11;1.55;;;0.40;;
85267;SDS011;75677;52.380;4.876;2024-02-26T13:15:36;2.05;;;0.68;;
85267;SDS011;75677;52.380;4.876;2024-02-26T13:18:11;2.67;;;0.63;;
85267;SDS011;75677;52.380;4.876;2024-02-26T13:20:40;1.90;;;0.43;;
85267;SDS011;75677;52.380;4.876;2024-02-26T13:23:07;1.20;;;0.60;;
85267;SDS011;75677;52.380;4.876;2024-02-26T13:25:35;2.42;;;0.77;;
85267;SDS011;75677;52.380;4.876;2024-02-26T13:28:25;2.60;;;0.32;;
85267;SDS011;75677;52.380;4.876;2024-02-26T13:30:55;1.48;;;0.50;;
85267;SDS011;75677;52.380;4.876;2024-02-26T13:33:22;2.10;;;0.45;;
85267;SDS011;75677;52.380;4.876;2024-02-26T13:35:48;2.95;;;0.35;;
85267;SDS011;75677;52.380;4.876;2024-02-26T13:38:14;2.20;;;0.45;;
85267;SDS011;75677;52.380;4.876;2024-02-26T13:40:39;1.40;;;0.35;;
85267;SDS011;75677;52.380;4.876;2024-02-26T13:43:05;1.60;;;0.32;;
85267;SDS011;75677;52.380;4.876;2024-02-26T13:45:30;1.58;;;0.75;;
85267;SDS011;75677;52.380;4.876;2024-02-26T13:48:01;1.67;;;0.50;;
85267;SDS011;75677;52.380;4.876;2024-02-26T13:50:28;1.58;;;0.47;;
85267;SDS011;75677;52.380;4.876;2024-02-26T13:52:53;1.70;;;0.52;;
85267;SDS011;75677;52.380;4.876;2024-02-26T13:55:21;2.35;;;0.60;;
85267;SDS011;75677;52.380;4.876;2024-02-26T13:57:47;2.38;;;0.50;;
85267;SDS011;75677;52.380;4.876;2024-02-26T14:00:13;2.40;;;0.40;;
85267;SDS011;75677;52.380;4.876;2024-02-26T14:02:39;1.65;;;0.52;;
85267;SDS011;75677;52.380;4.876;2024-02-26T14:05:04;1.73;;;0.30;;
85267;SDS011;75677;52.380;4.876;2024-02-26T14:07:30;2.42;;;0.30;;
85267;SDS011;75677;52.380;4.876;2024-02-26T14:09:57;2.13;;;0.38;;
85267;SDS011;75677;52.380;4.876;2024-02-26T14:12:23;1.67;;;0.43;;
85267;SDS011;75677;52.380;4.876;2024-02-26T14:14:48;1.52;;;0.43;;
85267;SDS011;75677;52.380;4.876;2024-02-26T14:17:14;2.03;;;0.88;;
85267;SDS011;75677;52.380;4.876;2024-02-26T14:19:40;2.15;;;0.50;;
85267;SDS011;75677;52.380;4.876;2024-02-26T14:22:10;2.10;;;0.50;;
85267;SDS011;75677;52.380;4.876;2024-02-26T14:24:36;2.63;;;0.75;;
85267;SDS011;75677;52.380;4.876;2024-02-26T14:27:02;2.78;;;0.80;;
85267;SDS011;75677;52.380;4.876;2024-02-26T14:31:53;1.80;;;1.23;;
85267;SDS011;75677;52.380;4.876;2024-02-26T14:34:21;4.07;;;0.88;;
85267;SDS011;75677;52.380;4.876;2024-02-26T14:36:46;1.70;;;0.40;;
85267;SDS011;75677;52.380;4.876;2024-02-26T14:39:12;2.73;;;0.53;;
85267;SDS011;75677;52.380;4.876;2024-02-26T14:41:38;2.95;;;0.52;;
85267;SDS011;75677;52.380;4.876;2024-02-26T14:44:04;3.58;;;0.63;;
85267;SDS011;75677;52.380;4.876;2024-02-26T14:46:29;3.33;;;1.00;;
85267;SDS011;75677;52.380;4.876;2024-02-26T14:48:55;3.35;;;0.63;;
85267;SDS011;75677;52.380;4.876;2024-02-26T14:51:21;5.30;;;0.82;;
85267;SDS011;75677;52.380;4.876;2024-02-26T14:53:47;2.22;;;0.52;;
85267;SDS011;75677;52.380;4.876;2024-02-26T14:56:12;2.33;;;0.63;;
85267;SDS011;75677;52.380;4.876;2024-02-26T14:58:38;5.82;;;0.70;;
85267;SDS011;75677;52.380;4.876;2024-02-26T15:01:03;3.07;;;0.80;;
85267;SDS011;75677;52.380;4.876;2024-02-26T15:03:29;3.42;;;0.50;;
85267;SDS011;75677;52.380;4.876;2024-02-26T15:05:54;3.63;;;0.73;;
85267;SDS011;75677;52.380;4.876;2024-02-26T15:08:20;3.27;;;0.70;;
85267;SDS011;75677;52.380;4.876;2024-02-26T15:10:45;2.47;;;0.82;;
85267;SDS011;75677;52.380;4.876;2024-02-26T15:13:16;2.42;;;0.73;;
85267;SDS011;75677;52.380;4.876;2024-02-26T15:15:43;2.40;;;0.43;;
85267;SDS011;75677;52.380;4.876;2024-02-26T15:18:09;2.47;;;1.10;;
85267;SDS011;75677;52.380;4.876;2024-02-26T15:20:37;4.43;;;0.52;;
85267;SDS011;75677;52.380;4.876;2024-02-26T15:23:04;3.13;;;0.90;;
85267;SDS011;75677;52.380;4.876;2024-02-26T15:25:29;2.50;;;0.50;;
85267;SDS011;75677;52.380;4.876;2024-02-26T15:27:55;3.97;;;0.60;;
85267;SDS011;75677;52.380;4.876;2024-02-26T15:30:20;4.60;;;0.85;;
85267;SDS011;75677;52.380;4.876;2024-02-26T15:32:46;3.40;;;0.67;;
85267;SDS011;75677;52.380;4.876;2024-02-26T15:35:11;2.05;;;0.52;;
85267;SDS011;75677;52.380;4.876;2024-02-26T15:37:36;2.67;;;0.47;;
85267;SDS011;75677;52.380;4.876;2024-02-26T15:40:02;2.40;;;0.70;;